Time;durP1;ratioP1;P1;durP2;ratioP2;P2;SDS_P1;SDS_P2;PMS_P1;PMS_P2;Temp;Humidity;BMP_temperature;BMP_pressure;BME280_temperature;BME280_humidity;BME280_pressure;Samples;Min_cycle;Max_cycle;Signal;HPM_P1;HPM_P2
2023/12/27 00:00:47;;;;;;;219.32;207.35;;;12.30;99.90;;;;;;5034849;28;20029;-76
2023/12/27 00:03:13;;;;;;;174.80;165.25;;;12.40;99.90;;;;;;5035703;28;20037;-76
2023/12/27 00:05:40;;;;;;;220.30;208.48;;;12.40;99.90;;;;;;5020219;28;20047;-76
2023/12/27 00:08:06;;;;;;;183.82;173.57;;;12.40;99.90;;;;;;5004007;28;20052;-76
2023/12/27 00:10:32;;;;;;;186.70;176.88;;;12.40;99.90;;;;;;5022037;28;20036;-76
2023/12/27 00:12:58;;;;;;;188.07;178.05;;;12.40;99.90;;;;;;5040330;28;20036;-76
2023/12/27 00:15:24;;;;;;;207.30;196.30;;;12.40;99.90;;;;;;5041510;28;20501;-76
2023/12/27 00:17:50;;;;;;;187.15;177.20;;;12.40;99.90;;;;;;5020813;28;20063;-76
2023/12/27 00:20:16;;;;;;;245.40;231.93;;;12.30;99.90;;;;;;5027235;28;20045;-76
2023/12/27 00:22:42;;;;;;;224.20;211.80;;;12.30;99.90;;;;;;5016000;28;20029;-76
2023/12/27 00:25:08;;;;;;;230.88;218.15;;;12.30;99.90;;;;;;5038692;28;20052;-76
2023/12/27 00:27:34;;;;;;;198.02;187.35;;;12.30;99.90;;;;;;5044299;28;20037;-76
2023/12/27 00:30:01;;;;;;;181.50;171.52;;;12.40;99.90;;;;;;5041802;28;20041;-76
2023/12/27 00:32:27;;;;;;;161.43;152.75;;;12.50;99.90;;;;;;5031969;28;20057;-76
2023/12/27 00:34:53;;;;;;;164.60;155.65;;;12.30;99.90;;;;;;5032621;28;20034;-76
2023/12/27 00:37:19;;;;;;;172.20;162.73;;;12.30;99.90;;;;;;5038587;28;20037;-76
2023/12/27 00:39:46;;;;;;;198.13;187.18;;;12.20;99.90;;;;;;5043748;28;20372;-76
2023/12/27 00:42:12;;;;;;;166.75;157.50;;;12.30;99.90;;;;;;5032023;28;20467;-76
2023/12/27 00:44:38;;;;;;;193.30;182.95;;;12.30;99.90;;;;;;5031876;28;20058;-76
2023/12/27 00:47:05;;;;;;;176.00;166.30;;;12.40;99.90;;;;;;5031845;28;20111;-76
2023/12/27 00:49:31;;;;;;;162.07;153.38;;;12.40;99.90;;;;;;5036013;28;20036;-76
2023/12/27 00:51:57;;;;;;;179.20;169.30;;;12.40;99.90;;;;;;5034429;28;20029;-75
2023/12/27 00:54:23;;;;;;;173.55;164.18;;;12.30;99.90;;;;;;5032901;28;20581;-76
2023/12/27 00:56:49;;;;;;;222.85;210.82;;;12.30;99.90;;;;;;5038599;28;20033;-76
2023/12/27 00:59:15;;;;;;;137.48;129.80;;;12.30;99.90;;;;;;5030607;28;20038;-75
2023/12/27 01:01:43;;;;;;;203.15;191.90;;;12.20;99.90;;;;;;5023090;28;20037;-76
2023/12/27 01:04:09;;;;;;;243.07;229.65;;;12.10;99.90;;;;;;5042996;28;20044;-76
2023/12/27 01:06:36;;;;;;;246.32;232.68;;;12.10;99.90;;;;;;5032943;28;20037;-75
2023/12/27 01:09:02;;;;;;;164.20;155.30;;;12.20;99.90;;;;;;5033857;28;20507;-76
2023/12/27 01:11:28;;;;;;;241.55;228.15;;;12.10;99.90;;;;;;5044182;28;20033;-76
2023/12/27 01:13:54;;;;;;;211.93;200.35;;;12.00;99.90;;;;;;5035366;28;20021;-76
2023/12/27 01:16:21;;;;;;;220.43;208.35;;;12.10;99.90;;;;;;5044859;28;20040;-76
2023/12/27 01:18:47;;;;;;;232.20;219.25;;;12.00;99.90;;;;;;5006178;28;20041;-76
2023/12/27 01:21:13;;;;;;;202.70;191.55;;;12.00;99.90;;;;;;5039517;28;20040;-76
2023/12/27 01:23:40;;;;;;;199.05;187.68;;;12.00;99.90;;;;;;5033257;28;20021;-76
2023/12/27 01:26:06;;;;;;;182.48;171.77;;;12.00;99.90;;;;;;5032252;28;20715;-75
2023/12/27 01:28:32;;;;;;;192.82;181.60;;;12.10;99.90;;;;;;5040926;28;20026;-76
2023/12/27 01:30:59;;;;;;;171.43;161.90;;;12.10;99.90;;;;;;5035493;28;20726;-76
2023/12/27 01:33:25;;;;;;;145.00;136.98;;;12.00;99.90;;;;;;5034812;28;20026;-76
2023/12/27 01:35:51;;;;;;;150.55;141.50;;;11.90;99.90;;;;;;5051230;28;20037;-75
2023/12/27 01:38:17;;;;;;;187.05;176.23;;;11.90;99.90;;;;;;5033717;28;20044;-76
2023/12/27 01:40:49;;;;;;;172.75;163.35;;;11.80;99.90;;;;;;5035081;28;20029;-75
2023/12/27 01:43:16;;;;;;;150.25;141.52;;;11.80;99.90;;;;;;5018056;28;20033;-75
2023/12/27 01:45:42;;;;;;;155.25;146.05;;;11.70;99.90;;;;;;5045984;28;20484;-76
2023/12/27 01:48:09;;;;;;;172.75;162.82;;;11.60;99.90;;;;;;5027522;28;20613;-75
2023/12/27 01:50:35;;;;;;;147.93;139.43;;;11.70;99.90;;;;;;5046324;28;20044;-76
2023/12/27 01:53:01;;;;;;;145.02;136.70;;;11.70;99.90;;;;;;5012458;28;20044;-75
2023/12/27 01:55:27;;;;;;;138.05;129.90;;;11.70;99.90;;;;;;5021471;28;20041;-75
2023/12/27 01:57:53;;;;;;;155.32;146.15;;;11.70;99.90;;;;;;5030402;28;20056;-75
2023/12/27 02:00:19;;;;;;;167.85;158.15;;;11.70;99.90;;;;;;5031572;28;20037;-76
2023/12/27 02:02:45;;;;;;;145.13;136.60;;;11.70;99.90;;;;;;5026716;28;20041;-75
2023/12/27 02:05:11;;;;;;;136.80;128.88;;;11.70;99.90;;;;;;5050199;28;20055;-76
2023/12/27 02:07:37;;;;;;;141.65;133.30;;;11.70;99.90;;;;;;5036399;28;20046;-76
2023/12/27 02:10:04;;;;;;;144.57;135.75;;;11.70;99.90;;;;;;5029319;28;20488;-75
2023/12/27 02:12:31;;;;;;;172.20;162.38;;;11.70;99.90;;;;;;5013026;28;20045;-75
2023/12/27 02:14:57;;;;;;;162.65;152.93;;;11.60;99.90;;;;;;5034272;28;20025;-76
2023/12/27 02:17:25;;;;;;;161.48;152.07;;;11.70;99.90;;;;;;5040298;28;20041;-75
2023/12/27 02:19:52;;;;;;;181.13;170.88;;;11.70;99.90;;;;;;5034409;28;20359;-76
2023/12/27 02:22:19;;;;;;;242.13;228.27;;;11.70;99.90;;;;;;5033034;28;20032;-75
2023/12/27 02:24:48;;;;;;;198.90;187.70;;;11.70;99.90;;;;;;5027184;28;20029;-75
2023/12/27 02:27:14;;;;;;;152.90;144.02;;;11.70;99.90;;;;;;5048384;28;20036;-75
2023/12/27 02:29:40;;;;;;;212.57;200.55;;;11.60;99.90;;;;;;5008396;28;20399;-75
2023/12/27 02:32:08;;;;;;;180.75;170.18;;;11.60;99.90;;;;;;5033776;28;20041;-76
2023/12/27 02:34:34;;;;;;;228.25;215.02;;;11.60;99.90;;;;;;5031097;28;20029;-75
2023/12/27 02:37:00;;;;;;;148.43;140.00;;;11.60;99.90;;;;;;5032825;28;20041;-76
2023/12/27 02:39:26;;;;;;;170.90;161.07;;;11.60;99.90;;;;;;5049802;28;20028;-76
2023/12/27 02:41:52;;;;;;;324.52;305.50;;;11.60;99.90;;;;;;5039676;28;20032;-76
2023/12/27 02:44:18;;;;;;;297.58;280.13;;;11.50;99.90;;;;;;5013597;28;20479;-75
2023/12/27 02:46:45;;;;;;;270.67;255.23;;;11.60;99.90;;;;;;5035457;28;20048;-76
2023/12/27 02:49:11;;;;;;;271.00;255.43;;;11.60;99.90;;;;;;5033564;28;20472;-75
2023/12/27 02:51:37;;;;;;;242.57;228.98;;;11.60;99.90;;;;;;5017795;28;20033;-76
2023/12/27 02:54:03;;;;;;;259.95;245.10;;;11.50;99.90;;;;;;5050101;28;20033;-75
2023/12/27 02:56:29;;;;;;;164.98;155.98;;;11.50;99.90;;;;;;5035898;28;20033;-75
2023/12/27 02:58:55;;;;;;;158.18;149.35;;;11.50;99.90;;;;;;5038514;28;20071;-76
2023/12/27 03:01:21;;;;;;;157.30;148.77;;;11.50;99.90;;;;;;5035947;28;20529;-76
2023/12/27 03:03:47;;;;;;;166.68;157.57;;;11.50;99.90;;;;;;5030300;28;20040;-75
2023/12/27 03:06:13;;;;;;;165.05;156.07;;;11.40;99.90;;;;;;5013902;28;20427;-76
2023/12/27 03:08:39;;;;;;;149.98;141.55;;;11.40;99.90;;;;;;5030509;28;20029;-75
2023/12/27 03:11:06;;;;;;;144.23;136.02;;;11.40;99.90;;;;;;5017725;28;20033;-76
2023/12/27 03:13:33;;;;;;;133.50;125.95;;;11.40;99.90;;;;;;5030783;28;20387;-75
2023/12/27 03:16:05;;;;;;;152.82;144.30;;;11.30;99.90;;;;;;5014665;28;20030;-75
2023/12/27 03:18:32;;;;;;;188.32;177.85;;;11.20;99.90;;;;;;5031852;28;20045;-76
2023/12/27 03:20:59;;;;;;;159.60;150.35;;;11.30;99.90;;;;;;5034815;28;20053;-75
2023/12/27 03:23:25;;;;;;;149.05;140.07;;;11.30;99.90;;;;;;5014281;28;20033;-75
2023/12/27 03:25:51;;;;;;;157.95;149.10;;;11.30;99.90;;;;;;5031188;28;20034;-75
2023/12/27 03:28:17;;;;;;;163.45;154.20;;;11.20;99.90;;;;;;5049244;28;20036;-75
2023/12/27 03:30:43;;;;;;;149.48;141.18;;;11.10;99.90;;;;;;5030476;28;20488;-75
2023/12/27 03:33:09;;;;;;;188.57;177.77;;;11.10;99.90;;;;;;5023749;28;20406;-75
2023/12/27 03:35:35;;;;;;;142.50;134.32;;;11.00;99.90;;;;;;5045146;28;20041;-75
2023/12/27 03:38:02;;;;;;;122.03;115.22;;;11.00;99.90;;;;;;5029770;28;20365;-76
2023/12/27 03:40:28;;;;;;;162.35;152.75;;;10.80;99.90;;;;;;5027333;28;20037;-75
2023/12/27 03:42:54;;;;;;;232.27;219.15;;;10.90;99.90;;;;;;5020587;28;20040;-75
2023/12/27 03:45:20;;;;;;;220.25;207.82;;;11.00;99.90;;;;;;4999028;28;20041;-75
2023/12/27 03:47:46;;;;;;;193.80;182.80;;;11.10;99.90;;;;;;5037263;28;20048;-75
2023/12/27 03:50:12;;;;;;;173.38;163.60;;;11.10;99.90;;;;;;5031590;28;20069;-76
2023/12/27 03:52:38;;;;;;;145.60;136.80;;;11.00;99.90;;;;;;5034647;28;20029;-75
2023/12/27 03:55:05;;;;;;;145.10;137.00;;;11.00;99.90;;;;;;5034371;28;20032;-76
2023/12/27 03:57:31;;;;;;;161.57;152.48;;;11.00;99.90;;;;;;5046213;28;20044;-75
2023/12/27 03:59:57;;;;;;;145.40;137.30;;;11.00;99.90;;;;;;5053657;28;20017;-75
2023/12/27 04:02:23;;;;;;;130.35;122.85;;;11.00;99.90;;;;;;5015842;28;20038;-75
2023/12/27 04:04:49;;;;;;;164.57;155.38;;;11.00;99.90;;;;;;5033619;28;20029;-75
2023/12/27 04:07:15;;;;;;;166.48;156.75;;;11.00;99.90;;;;;;5042940;28;20045;-75
2023/12/27 04:09:42;;;;;;;164.63;154.63;;;11.00;99.90;;;;;;5036146;28;20041;-75
2023/12/27 04:12:08;;;;;;;142.07;133.93;;;11.00;99.90;;;;;;5036018;28;20463;-75
2023/12/27 04:14:34;;;;;;;146.95;138.55;;;11.00;99.90;;;;;;5035776;28;20043;-75
2023/12/27 04:17:01;;;;;;;165.93;156.40;;;11.00;99.90;;;;;;5040368;28;20033;-75
2023/12/27 04:19:27;;;;;;;134.25;126.75;;;11.00;99.90;;;;;;5034532;28;20033;-75
2023/12/27 04:21:53;;;;;;;128.93;121.63;;;10.90;99.90;;;;;;5035338;28;20040;-75
2023/12/27 04:24:19;;;;;;;135.57;127.93;;;11.00;99.90;;;;;;5053964;28;20033;-75
2023/12/27 04:26:45;;;;;;;195.00;183.75;;;10.90;99.90;;;;;;5043820;28;20037;-75
2023/12/27 04:29:11;;;;;;;165.80;156.38;;;10.80;99.90;;;;;;5040899;28;20041;-75
2023/12/27 04:31:37;;;;;;;190.48;179.32;;;10.80;99.90;;;;;;5015925;28;20413;-75
2023/12/27 04:34:03;;;;;;;181.77;171.50;;;10.80;99.90;;;;;;5033236;28;20025;-75
2023/12/27 04:36:30;;;;;;;193.85;183.05;;;10.80;99.90;;;;;;5021524;28;20033;-75
2023/12/27 04:38:56;;;;;;;168.43;158.82;;;10.80;99.90;;;;;;5035151;28;20034;-75
2023/12/27 04:41:22;;;;;;;180.38;170.23;;;10.80;99.90;;;;;;5038523;28;20037;-75
2023/12/27 04:43:48;;;;;;;190.80;179.98;;;10.80;99.90;;;;;;5049927;28;20364;-75
2023/12/27 04:46:15;;;;;;;151.10;142.90;;;10.70;99.90;;;;;;5044930;28;20046;-75
2023/12/27 04:48:41;;;;;;;140.70;132.73;;;10.80;99.90;;;;;;5015433;28;20484;-75
2023/12/27 04:51:07;;;;;;;133.32;125.90;;;10.70;99.90;;;;;;5032683;28;20033;-75
2023/12/27 04:53:33;;;;;;;129.82;122.63;;;10.70;99.90;;;;;;5045915;28;20383;-75
2023/12/27 04:55:59;;;;;;;155.75;146.80;;;10.70;99.90;;;;;;5044934;28;20029;-75
2023/12/27 04:58:25;;;;;;;162.98;153.75;;;10.70;99.90;;;;;;5036229;28;20053;-75
2023/12/27 05:00:51;;;;;;;151.13;142.65;;;10.70;99.90;;;;;;5041062;28;20037;-75
2023/12/27 05:03:17;;;;;;;165.02;155.70;;;10.70;99.90;;;;;;5040904;28;20037;-75
2023/12/27 05:05:44;;;;;;;165.88;156.88;;;10.60;99.90;;;;;;5033880;28;20447;-75
2023/12/27 05:08:10;;;;;;;185.38;174.80;;;10.60;99.90;;;;;;5024464;28;20041;-75
2023/12/27 05:10:36;;;;;;;181.50;171.05;;;10.60;99.90;;;;;;5039689;28;20387;-75
2023/12/27 05:13:03;;;;;;;167.00;157.68;;;10.60;99.90;;;;;;5041927;28;20033;-75
2023/12/27 05:15:29;;;;;;;172.23;162.65;;;10.60;99.90;;;;;;5040146;28;20791;-75
2023/12/27 05:17:55;;;;;;;153.48;145.05;;;10.60;99.90;;;;;;5032028;28;20033;-75
2023/12/27 05:20:21;;;;;;;188.75;177.98;;;10.60;99.90;;;;;;5032693;28;20406;-75
2023/12/27 05:22:47;;;;;;;196.18;184.57;;;10.50;99.90;;;;;;5038398;28;20029;-75
2023/12/27 05:25:13;;;;;;;219.57;207.07;;;10.50;99.90;;;;;;5038756;28;20396;-75
2023/12/27 05:27:39;;;;;;;220.02;207.77;;;10.40;99.90;;;;;;5036737;28;20060;-75
2023/12/27 05:30:09;;;;;;;204.60;192.98;;;10.40;99.90;;;;;;5033597;28;20033;-75
2023/12/27 05:32:36;;;;;;;214.95;200.80;;;10.10;99.90;;;;;;5041165;28;20036;-75
2023/12/27 05:35:03;;;;;;;257.17;241.43;;;10.20;99.90;;;;;;5034973;28;20032;-75
2023/12/27 05:37:29;;;;;;;244.70;230.32;;;10.30;99.90;;;;;;5013436;28;20380;-74
2023/12/27 05:39:55;;;;;;;292.52;270.42;;;10.20;99.90;;;;;;5032587;28;20040;-75
2023/12/27 05:42:21;;;;;;;405.23;287.85;;;10.20;99.90;;;;;;5037671;28;20416;-75
2023/12/27 05:44:47;;;;;;;374.10;351.95;;;10.10;99.90;;;;;;5016816;28;20431;-75
2023/12/27 05:47:13;;;;;;;309.98;291.83;;;10.10;99.90;;;;;;5046250;28;20052;-75
2023/12/27 05:49:39;;;;;;;353.58;331.27;;;10.10;99.90;;;;;;5033818;28;20021;-75
2023/12/27 05:52:07;;;;;;;405.65;380.35;;;10.20;99.90;;;;;;5035285;28;20033;-75
2023/12/27 05:54:33;;;;;;;412.15;386.58;;;10.10;99.90;;;;;;5015404;28;20037;-75
2023/12/27 05:56:59;;;;;;;399.92;374.77;;;9.90;99.90;;;;;;5030509;28;20025;-75
2023/12/27 05:59:26;;;;;;;352.13;330.30;;;9.70;99.90;;;;;;5031145;28;20029;-75
2023/12/27 06:01:55;;;;;;;250.50;235.50;;;9.60;99.90;;;;;;5034091;28;20052;-74
2023/12/27 06:04:21;;;;;;;229.27;215.25;;;9.60;99.90;;;;;;5032231;28;20041;-75
2023/12/27 06:06:51;;;;;;;258.15;242.52;;;9.60;99.90;;;;;;5032775;28;20053;-75
2023/12/27 06:09:17;;;;;;;416.65;253.25;;;9.60;99.90;;;;;;5039354;28;20395;-74
2023/12/27 06:11:43;;;;;;;285.63;268.10;;;9.70;99.90;;;;;;5031440;28;20139;-75
2023/12/27 06:14:09;;;;;;;697.47;230.32;;;9.70;99.90;;;;;;5032250;28;20378;-75
2023/12/27 06:16:35;;;;;;;240.45;225.07;;;9.60;99.90;;;;;;5040327;28;20040;-74
2023/12/27 06:19:01;;;;;;;247.23;232.07;;;9.60;99.90;;;;;;5040674;28;20055;-74
2023/12/27 06:21:28;;;;;;;217.35;203.65;;;9.60;99.90;;;;;;5024196;28;20391;-75
2023/12/27 06:23:55;;;;;;;224.68;211.18;;;9.60;99.90;;;;;;5023369;28;20029;-75
2023/12/27 06:26:21;;;;;;;231.20;217.23;;;9.60;99.90;;;;;;5021625;28;20044;-75
2023/12/27 06:28:47;;;;;;;240.23;226.23;;;9.60;99.90;;;;;;5022364;28;20385;-74
2023/12/27 06:31:14;;;;;;;234.85;221.23;;;9.50;99.90;;;;;;5023261;28;20407;-74
2023/12/27 06:33:40;;;;;;;207.60;195.48;;;9.50;99.90;;;;;;5034880;28;20394;-75
2023/12/27 06:36:06;;;;;;;202.23;190.48;;;9.50;99.90;;;;;;5039066;28;20048;-75
2023/12/27 06:38:33;;;;;;;205.75;193.43;;;9.40;99.90;;;;;;5040001;28;20029;-74
2023/12/27 06:41:00;;;;;;;202.02;189.80;;;9.50;99.90;;;;;;5035241;28;20045;-75
2023/12/27 06:43:27;;;;;;;242.23;228.10;;;9.60;99.90;;;;;;5035864;28;20474;-75
2023/12/27 06:45:53;;;;;;;237.52;223.38;;;9.50;99.90;;;;;;5035949;28;20052;-75
2023/12/27 06:48:19;;;;;;;250.43;235.55;;;9.40;99.90;;;;;;5037315;28;20490;-75
2023/12/27 06:50:45;;;;;;;205.80;193.15;;;9.30;99.90;;;;;;5037305;28;20030;-75
2023/12/27 06:53:11;;;;;;;211.10;198.40;;;9.30;99.90;;;;;;5038370;28;20411;-75
2023/12/27 06:55:37;;;;;;;236.60;222.50;;;9.30;99.90;;;;;;5022878;28;20025;-75
2023/12/27 06:58:04;;;;;;;230.93;216.55;;;9.30;99.90;;;;;;5039607;28;20526;-74
2023/12/27 07:00:30;;;;;;;206.63;194.18;;;9.20;99.90;;;;;;5037892;28;20041;-75
2023/12/27 07:02:56;;;;;;;240.25;225.68;;;9.20;99.90;;;;;;5037517;28;20032;-73
2023/12/27 07:05:22;;;;;;;241.55;227.30;;;9.30;99.90;;;;;;5038722;28;20594;-74
2023/12/27 07:07:48;;;;;;;265.55;243.45;;;9.20;99.90;;;;;;5042432;28;20048;-74
2023/12/27 07:10:14;;;;;;;223.98;210.73;;;9.20;99.90;;;;;;5040212;28;20029;-75
2023/12/27 07:12:40;;;;;;;193.35;182.07;;;9.30;99.90;;;;;;5026414;28;20491;-76
2023/12/27 07:15:11;;;;;;;236.07;222.25;;;9.30;99.90;;;;;;5023322;28;20044;-75
2023/12/27 07:17:37;;;;;;;191.02;180.18;;;9.30;99.90;;;;;;5040223;28;20037;-75
2023/12/27 07:20:04;;;;;;;208.00;196.20;;;9.20;99.90;;;;;;5017355;28;20034;-75
2023/12/27 07:22:30;;;;;;;193.63;179.27;;;9.30;99.90;;;;;;5031838;28;20052;-76
2023/12/27 07:24:56;;;;;;;222.25;206.80;;;9.30;99.90;;;;;;5054251;28;20037;-76
2023/12/27 07:27:22;;;;;;;181.32;170.90;;;9.20;99.90;;;;;;5031275;28;20041;-77
2023/12/27 07:29:48;;;;;;;180.63;170.05;;;9.20;99.90;;;;;;5036007;28;20033;-77
2023/12/27 07:32:14;;;;;;;210.00;190.77;;;9.30;99.90;;;;;;5038629;28;20049;-75
2023/12/27 07:34:42;;;;;;;174.80;164.82;;;9.20;99.90;;;;;;5041564;28;20029;-75
2023/12/27 07:37:08;;;;;;;187.27;175.18;;;9.10;99.90;;;;;;5040296;28;20049;-75
2023/12/27 07:39:34;;;;;;;193.65;182.32;;;9.10;99.90;;;;;;5019173;28;20033;-75
2023/12/27 07:42:00;;;;;;;164.68;155.32;;;9.20;99.90;;;;;;5032029;28;20025;-75
2023/12/27 07:44:26;;;;;;;175.43;164.88;;;9.20;99.90;;;;;;5039624;28;20033;-75
2023/12/27 07:46:53;;;;;;;194.95;183.80;;;9.10;99.90;;;;;;5036110;28;20406;-75
2023/12/27 07:49:19;;;;;;;182.77;172.32;;;9.10;99.90;;;;;;5029983;28;21146;-76
2023/12/27 07:51:45;;;;;;;194.55;183.13;;;9.00;99.90;;;;;;5019111;28;20029;-76
2023/12/27 07:54:11;;;;;;;202.38;190.48;;;9.10;99.90;;;;;;5020522;28;20035;-76
2023/12/27 07:56:37;;;;;;;198.55;186.90;;;9.10;99.90;;;;;;4983455;28;20037;-76
2023/12/27 07:59:04;;;;;;;200.25;187.07;;;9.20;99.90;;;;;;5027515;28;20041;-76
2023/12/27 08:01:31;;;;;;;190.15;179.27;;;9.20;99.90;;;;;;5032499;28;20036;-76
2023/12/27 08:03:58;;;;;;;196.40;185.02;;;9.20;99.90;;;;;;5035051;28;21975;-75
2023/12/27 08:06:24;;;;;;;206.13;194.45;;;9.20;99.90;;;;;;5029834;28;20343;-76
2023/12/27 08:08:50;;;;;;;179.63;169.65;;;9.10;99.90;;;;;;5038241;28;20037;-76
2023/12/27 08:11:16;;;;;;;179.77;169.50;;;9.10;99.90;;;;;;5034463;28;20021;-76
2023/12/27 08:13:42;;;;;;;240.57;226.52;;;9.10;99.90;;;;;;5033175;28;20037;-76
2023/12/27 08:16:09;;;;;;;182.82;172.63;;;9.10;99.90;;;;;;5040278;28;20033;-76
2023/12/27 08:18:35;;;;;;;169.43;159.70;;;9.10;99.90;;;;;;5042772;28;20429;-76
2023/12/27 08:21:01;;;;;;;185.07;174.82;;;9.20;99.90;;;;;;5050656;28;20100;-76
2023/12/27 08:23:27;;;;;;;178.70;168.60;;;9.20;99.90;;;;;;5052382;28;20036;-76
2023/12/27 08:25:53;;;;;;;172.43;162.52;;;9.10;99.90;;;;;;5050791;28;20395;-76
2023/12/27 08:28:19;;;;;;;139.48;131.65;;;9.20;99.90;;;;;;5035112;28;20055;-76
2023/12/27 08:30:46;;;;;;;188.25;177.98;;;9.20;99.90;;;;;;5039925;28;20068;-76
2023/12/27 08:33:12;;;;;;;179.82;169.75;;;9.10;99.90;;;;;;5042958;28;20497;-76
2023/12/27 08:35:38;;;;;;;177.05;167.30;;;9.10;99.90;;;;;;5032509;28;20037;-77
2023/12/27 08:38:08;;;;;;;182.30;172.07;;;9.10;99.90;;;;;;5042438;28;20026;-76
2023/12/27 08:40:34;;;;;;;175.53;165.57;;;9.10;99.90;;;;;;5041623;28;20030;-77
2023/12/27 08:43:01;;;;;;;167.93;158.52;;;9.10;99.90;;;;;;5034011;28;20037;-75
2023/12/27 08:45:27;;;;;;;209.68;197.90;;;9.20;99.90;;;;;;5048366;28;20525;-75
2023/12/27 08:47:53;;;;;;;122.90;116.18;;;9.20;99.90;;;;;;5044783;28;20037;-74
2023/12/27 08:50:19;;;;;;;177.82;168.05;;;9.10;99.90;;;;;;5035386;28;20033;-75
2023/12/27 08:52:45;;;;;;;207.85;196.55;;;9.00;99.90;;;;;;5044167;28;20034;-75
2023/12/27 08:55:12;;;;;;;173.50;164.07;;;9.10;99.90;;;;;;5030140;28;21899;-75
2023/12/27 08:57:38;;;;;;;175.75;166.00;;;9.10;99.90;;;;;;5044457;28;20519;-75
2023/12/27 09:00:10;;;;;;;162.05;153.32;;;9.10;99.90;;;;;;5041493;28;20022;-75
2023/12/27 09:02:39;;;;;;;134.38;126.60;;;9.10;99.90;;;;;;5020408;28;20025;-74
2023/12/27 09:05:06;;;;;;;136.63;128.82;;;9.10;99.90;;;;;;5045552;28;20028;-75
2023/12/27 09:07:32;;;;;;;123.10;116.25;;;9.00;99.90;;;;;;5033974;28;20052;-75
2023/12/27 09:09:59;;;;;;;114.75;108.07;;;8.90;99.90;;;;;;5022390;28;20030;-75
2023/12/27 09:12:25;;;;;;;166.73;157.52;;;8.90;99.90;;;;;;5029637;28;20037;-75
2023/12/27 09:14:51;;;;;;;249.52;234.48;;;8.90;99.90;;;;;;5047458;28;20036;-74
2023/12/27 09:17:18;;;;;;;246.23;228.30;;;9.00;99.90;;;;;;5033363;28;20472;-72
2023/12/27 09:19:44;;;;;;;406.35;374.50;;;9.30;99.90;;;;;;5033384;28;20498;-73
2023/12/27 09:22:11;;;;;;;215.13;202.65;;;9.50;99.90;;;;;;5031446;28;20484;-71
2023/12/27 09:24:37;;;;;;;226.90;214.35;;;9.70;99.90;;;;;;5041410;28;20033;-71
2023/12/27 09:27:04;;;;;;;179.95;169.27;;;9.80;99.90;;;;;;5046493;28;20043;-72
2023/12/27 09:29:33;;;;;;;162.05;152.88;;;9.80;99.90;;;;;;5037629;28;20029;-70
2023/12/27 09:31:59;;;;;;;184.45;174.20;;;9.70;99.90;;;;;;5037203;28;20519;-69
2023/12/27 09:34:25;;;;;;;124.15;117.10;;;9.90;99.90;;;;;;5043951;28;20060;-69
2023/12/27 09:36:51;;;;;;;438.15;240.00;;;10.10;99.90;;;;;;5040204;28;20420;-69
2023/12/27 09:39:17;;;;;;;153.95;145.60;;;10.30;99.90;;;;;;5018617;28;20029;-69
2023/12/27 09:41:43;;;;;;;131.70;124.68;;;10.60;99.90;;;;;;5032600;28;20056;-70
2023/12/27 09:44:10;;;;;;;166.18;157.50;;;10.70;99.90;;;;;;5019922;28;20049;-69
2023/12/27 09:46:38;;;;;;;171.35;162.32;;;10.70;99.90;;;;;;5038902;28;20407;-69
2023/12/27 09:49:07;;;;;;;168.02;159.23;;;10.90;99.90;;;;;;5032309;28;20052;-68
2023/12/27 09:51:34;;;;;;;167.95;159.07;;;11.00;99.90;;;;;;5033748;28;20392;-69
2023/12/27 09:54:00;;;;;;;122.20;115.80;;;10.60;99.90;;;;;;5042201;28;20285;-69
2023/12/27 09:56:27;;;;;;;184.63;174.77;;;10.40;99.90;;;;;;5035336;28;20045;-70
2023/12/27 09:58:57;;;;;;;114.20;107.70;;;10.40;99.90;;;;;;5022471;28;20037;-70
2023/12/27 10:01:27;;;;;;;112.88;106.75;;;10.50;99.90;;;;;;5031016;28;20033;-73
2023/12/27 10:03:59;;;;;;;149.10;141.23;;;10.60;99.90;;;;;;5015395;28;20033;-71
2023/12/27 10:06:42;;;;;;;251.45;237.60;;;10.60;99.90;;;;;;5021433;28;20026;-71
2023/12/27 10:09:09;;;;;;;187.82;178.18;;;10.60;99.90;;;;;;5037698;28;20057;-71
2023/12/27 10:11:35;;;;;;;142.40;134.68;;;10.70;99.90;;;;;;5039764;28;20029;-71
2023/12/27 10:14:04;;;;;;;110.47;104.40;;;10.70;99.90;;;;;;5036910;28;20033;-70
2023/12/27 10:16:30;;;;;;;746.50;421.77;;;10.80;99.90;;;;;;5035971;28;20036;-72
2023/12/27 10:18:57;;;;;;;397.67;374.25;;;11.00;99.90;;;;;;5042697;28;20047;-71
2023/12/27 10:21:23;;;;;;;362.52;341.55;;;11.20;99.90;;;;;;5033187;28;20028;-71
2023/12/27 10:23:49;;;;;;;235.75;223.55;;;11.40;99.90;;;;;;5036176;28;20411;-71
2023/12/27 10:26:15;;;;;;;1999.90;999.90;;;11.50;99.90;;;;;;5033973;28;20034;-71
2023/12/27 10:28:42;;;;;;;1999.90;999.90;;;11.60;99.90;;;;;;5029361;28;20045;-72
2023/12/27 10:31:09;;;;;;;1999.90;999.90;;;11.40;99.90;;;;;;5034523;28;20025;-72
2023/12/27 10:33:42;;;;;;;1999.90;999.90;;;11.50;99.90;;;;;;5035437;28;20041;-72
2023/12/27 10:36:09;;;;;;;1999.90;999.90;;;11.60;99.90;;;;;;5014942;28;20037;-72
2023/12/27 10:38:35;;;;;;;1999.90;999.90;;;11.50;99.90;;;;;;5032019;28;20025;-73
2023/12/27 10:41:06;;;;;;;1999.90;999.90;;;11.60;99.90;;;;;;5033094;28;20686;-72
2023/12/27 10:43:32;;;;;;;1999.90;999.90;;;11.70;99.90;;;;;;5032831;28;20041;-73
2023/12/27 10:45:59;;;;;;;1999.90;999.90;;;11.70;99.90;;;;;;5015721;28;20311;-71
2023/12/27 10:48:26;;;;;;;1999.90;999.90;;;11.70;99.90;;;;;;5040062;28;20068;-73
2023/12/27 10:50:52;;;;;;;1999.90;999.90;;;11.70;99.90;;;;;;5037885;28;20041;-71
2023/12/27 10:53:19;;;;;;;1999.90;999.90;;;11.80;99.90;;;;;;5029675;28;20471;-71
2023/12/27 10:55:49;;;;;;;1999.90;999.90;;;11.80;99.90;;;;;;5036080;28;20477;-72
2023/12/27 10:58:20;;;;;;;1999.90;999.90;;;11.80;99.90;;;;;;5034805;28;20041;-72
2023/12/27 11:00:46;;;;;;;;;;;11.80;99.90;;;;;;5026940;28;20033;-70
2023/12/27 11:03:12;;;;;;;1999.90;999.90;;;11.90;99.90;;;;;;5040760;28;20406;-72
2023/12/27 11:05:39;;;;;;;1999.90;999.90;;;11.90;99.90;;;;;;5026385;28;20048;-73
2023/12/27 11:08:05;;;;;;;1999.90;999.90;;;11.90;99.90;;;;;;5035221;28;20499;-77
2023/12/27 11:10:31;;;;;;;1999.90;999.90;;;11.80;99.90;;;;;;5017095;28;20048;-73
2023/12/27 11:12:59;;;;;;;1999.90;999.90;;;11.90;99.90;;;;;;5038036;28;20399;-73
2023/12/27 11:15:25;;;;;;;1999.90;999.90;;;11.90;99.90;;;;;;5034467;28;20044;-73
2023/12/27 11:17:51;;;;;;;1999.90;999.90;;;11.90;99.90;;;;;;5014735;28;20025;-74
2023/12/27 11:20:19;;;;;;;1999.90;999.90;;;12.00;99.90;;;;;;5012513;28;20041;-74
2023/12/27 11:22:46;;;;;;;1999.90;999.90;;;12.00;99.90;;;;;;5039617;28;20024;-73
2023/12/27 11:25:12;;;;;;;1999.90;999.90;;;12.00;99.90;;;;;;5036654;28;20044;-73
2023/12/27 11:27:39;;;;;;;1999.90;999.90;;;12.00;99.90;;;;;;5031743;28;20041;-73
2023/12/27 11:30:09;;;;;;;1999.90;999.90;;;12.10;99.90;;;;;;5017141;28;20030;-74
2023/12/27 11:32:36;;;;;;;1999.90;999.90;;;12.20;99.90;;;;;;5040997;28;20044;-72
2023/12/27 11:35:02;;;;;;;1999.90;999.90;;;12.10;99.90;;;;;;5032204;28;20373;-72
2023/12/27 11:37:29;;;;;;;1999.90;999.90;;;12.10;99.90;;;;;;5039285;28;20032;-72
2023/12/27 11:39:55;;;;;;;1999.90;999.90;;;12.10;99.90;;;;;;5046008;28;20029;-73
2023/12/27 11:42:22;;;;;;;1999.90;999.90;;;12.20;99.90;;;;;;5026036;28;20040;-73
2023/12/27 11:44:48;;;;;;;1999.90;999.90;;;12.20;99.90;;;;;;5020009;28;20045;-72
2023/12/27 11:47:15;;;;;;;1999.90;999.90;;;12.10;99.90;;;;;;5035829;28;20037;-73
2023/12/27 11:49:53;;;;;;;1999.90;999.90;;;12.10;99.90;;;;;;5035916;28;20406;-73
2023/12/27 11:52:20;;;;;;;1999.90;999.90;;;12.20;99.90;;;;;;5034681;28;20037;-73
2023/12/27 11:54:46;;;;;;;1999.90;999.90;;;12.20;99.90;;;;;;5028314;28;20060;-73
2023/12/27 11:57:13;;;;;;;1999.90;999.90;;;12.30;99.90;;;;;;5035551;28;20046;-73
2023/12/27 11:59:39;;;;;;;1999.90;999.90;;;12.30;99.90;;;;;;5036156;28;20044;-73
2023/12/27 12:02:05;;;;;;;1999.90;999.90;;;12.40;99.90;;;;;;5021002;28;20038;-73
2023/12/27 12:04:51;;;;;;;1999.90;999.90;;;12.40;99.90;;;;;;5032142;28;20029;-73
2023/12/27 12:07:39;;;;;;;1999.90;999.90;;;12.30;99.90;;;;;;5033276;28;20033;-72